createdAt,value
2022-10-23T00:02:18.090Z,1.23
2022-10-23T00:04:45.904Z,1.23
2022-10-23T00:07:13.720Z,1.17
2022-10-23T00:09:41.548Z,1.00
2022-10-23T00:12:09.404Z,1.37
2022-10-23T00:14:37.396Z,1.10
2022-10-23T00:17:05.216Z,1.27
2022-10-23T00:19:34.372Z,1.20
2022-10-23T00:22:02.243Z,1.23
2022-10-23T00:24:30.049Z,1.30
2022-10-23T00:26:57.869Z,1.20
2022-10-23T00:29:25.721Z,1.50
2022-10-23T00:31:53.560Z,1.10
2022-10-23T00:34:21.443Z,1.90
2022-10-23T00:36:50.654Z,1.43
2022-10-23T00:39:18.484Z,1.17
2022-10-23T00:41:46.328Z,1.60
2022-10-23T00:44:47.252Z,1.40
2022-10-23T00:47:15.413Z,1.27
2022-10-23T00:49:43.272Z,1.23
2022-10-23T00:52:15.136Z,1.30
2022-10-23T00:54:44.468Z,1.47
2022-10-23T00:57:15.288Z,1.50
2022-10-23T00:59:43.234Z,1.50
2022-10-23T01:02:11.361Z,1.37
2022-10-23T01:04:39.524Z,1.20
2022-10-23T01:07:14.893Z,1.10
2022-10-23T01:09:50.739Z,1.40
2022-10-23T01:12:28.571Z,1.30
2022-10-23T01:15:05.383Z,1.70
2022-10-23T01:17:40.816Z,1.03
2022-10-23T01:20:40.739Z,1.30
2022-10-23T01:23:22.779Z,1.10
2022-10-23T01:26:09.925Z,1.30
2022-10-23T01:28:45.931Z,1.33
2022-10-23T01:31:19.785Z,1.33
2022-10-23T01:33:52.383Z,1.20
2022-10-23T01:36:24.827Z,1.50
2022-10-23T01:38:56.938Z,1.73
2022-10-23T01:41:30.839Z,1.40
2022-10-23T01:44:05.138Z,1.53
2022-10-23T01:46:35.791Z,1.17
2022-10-23T01:49:04.779Z,1.57
2022-10-23T01:51:34.207Z,1.67
2022-10-23T01:54:03.495Z,1.43
2022-10-23T01:56:34.495Z,1.47
2022-10-23T01:59:07.486Z,1.30
2022-10-23T02:01:38.359Z,2.10
2022-10-23T02:04:08.439Z,1.30
2022-10-23T02:06:36.395Z,1.40
2022-10-23T02:09:04.757Z,1.00
2022-10-23T02:11:38.823Z,1.23
2022-10-23T02:14:17.085Z,1.50
2022-10-23T02:16:51.245Z,1.33
2022-10-23T02:19:25.257Z,1.30
2022-10-23T02:21:55.826Z,1.50
2022-10-23T02:24:32.694Z,1.50
2022-10-23T02:27:03.763Z,1.20
2022-10-23T02:29:36.030Z,1.37
2022-10-23T02:32:03.898Z,1.30
2022-10-23T02:34:31.691Z,1.50
2022-10-23T02:36:59.551Z,1.40
2022-10-23T02:39:29.184Z,1.20
2022-10-23T02:42:02.252Z,1.77
2022-10-23T02:44:41.184Z,1.23
2022-10-23T02:47:18.855Z,1.83
2022-10-23T02:49:55.488Z,1.10
2022-10-23T02:52:29.426Z,1.20
2022-10-23T02:55:09.221Z,1.27
2022-10-23T02:57:44.430Z,1.40
2022-10-23T03:00:16.250Z,1.53
2022-10-23T03:02:48.544Z,1.53
2022-10-23T03:05:20.526Z,1.53
2022-10-23T03:07:49.055Z,1.57
2022-10-23T03:10:16.947Z,1.37
2022-10-23T03:12:47.046Z,1.40
2022-10-23T03:15:17.332Z,1.40
2022-10-23T03:17:45.183Z,1.30
2022-10-23T03:20:13.442Z,1.83
2022-10-23T03:22:41.744Z,1.40
2022-10-23T03:25:10.617Z,1.83
2022-10-23T03:27:38.609Z,1.67
2022-10-23T03:30:07.693Z,1.40
2022-10-23T03:32:36.892Z,1.20
2022-10-23T03:35:05.227Z,1.40
2022-10-23T03:37:33.035Z,1.60
2022-10-23T03:40:00.876Z,1.27
2022-10-23T03:42:28.708Z,1.40
2022-10-23T03:44:56.545Z,1.40
2022-10-23T03:47:24.368Z,1.80
2022-10-23T03:49:53.588Z,1.40
2022-10-23T03:52:21.444Z,1.70
2022-10-23T03:54:49.295Z,1.50
2022-10-23T03:57:17.109Z,1.50
2022-10-23T03:59:44.910Z,1.57
2022-10-23T04:02:12.834Z,2.23
2022-10-23T04:04:40.680Z,1.97
2022-10-23T04:07:09.905Z,1.43
2022-10-23T04:09:37.765Z,1.60
2022-10-23T04:12:06.214Z,1.97
2022-10-23T04:14:34.050Z,1.50
2022-10-23T04:17:01.893Z,1.50
2022-10-23T04:19:29.718Z,1.50
2022-10-23T04:21:58.039Z,1.20
2022-10-23T04:24:27.692Z,1.33
2022-10-23T04:26:55.611Z,1.57
2022-10-23T04:29:24.578Z,1.43
2022-10-23T04:31:52.742Z,2.00
2022-10-23T04:34:20.543Z,1.80
2022-10-23T04:36:48.378Z,1.60
2022-10-23T04:39:16.234Z,1.43
2022-10-23T04:41:45.425Z,1.60
2022-10-23T04:44:13.287Z,1.80
2022-10-23T04:46:41.212Z,1.40
2022-10-23T04:49:09.124Z,1.63
2022-10-23T04:51:38.111Z,1.40
2022-10-23T04:54:06.036Z,1.53
2022-10-23T04:56:33.875Z,1.90
2022-10-23T04:59:03.146Z,1.70
2022-10-23T05:01:31.157Z,1.50
2022-10-23T05:03:59.067Z,1.40
2022-10-23T05:06:26.892Z,1.43
2022-10-23T05:08:54.740Z,1.80
2022-10-23T05:11:22.598Z,1.50
2022-10-23T05:13:50.517Z,2.03
2022-10-23T05:16:31.293Z,1.70
2022-10-23T05:18:59.812Z,1.70
2022-10-23T05:21:30.814Z,1.40
2022-10-23T05:26:32.814Z,1.77
2022-10-23T05:29:00.632Z,1.57
2022-10-23T05:31:30.209Z,1.40
2022-10-23T05:33:58.223Z,1.67
2022-10-23T05:36:27.031Z,1.80
2022-10-23T05:38:55.755Z,1.77
2022-10-23T05:41:23.599Z,2.23
2022-10-23T05:43:51.412Z,2.70
2022-10-23T05:46:19.244Z,2.00
2022-10-23T05:48:51.067Z,2.33
2022-10-23T05:51:22.199Z,1.90
2022-10-23T05:53:50.141Z,1.57
2022-10-23T05:56:18.421Z,1.60
2022-10-23T05:58:47.003Z,2.20
2022-10-23T06:01:17.389Z,1.80
2022-10-23T06:03:45.340Z,2.40
2022-10-23T06:06:14.582Z,2.27
2022-10-23T06:08:42.395Z,2.30
2022-10-23T06:11:12.192Z,1.83
2022-10-23T06:13:40.159Z,1.97
2022-10-23T06:16:12.659Z,2.50
2022-10-23T06:18:40.726Z,2.07
2022-10-23T06:21:08.859Z,2.13
2022-10-23T06:23:39.212Z,1.90
2022-10-23T06:26:08.170Z,2.20
2022-10-23T06:28:36.530Z,2.00
2022-10-23T06:31:06.079Z,1.80
2022-10-23T06:33:34.579Z,2.40
2022-10-23T06:36:03.580Z,2.13
2022-10-23T06:38:36.594Z,1.87
2022-10-23T06:41:07.297Z,2.23
2022-10-23T06:43:35.297Z,4.43
2022-10-23T06:46:04.336Z,2.90
2022-10-23T06:48:32.475Z,2.40
2022-10-23T06:51:04.951Z,1.73
2022-10-23T06:53:32.890Z,1.70
2022-10-23T06:56:01.408Z,1.83
2022-10-23T06:58:30.892Z,1.90
2022-10-23T07:01:01.805Z,2.20
2022-10-23T07:03:29.736Z,2.50
2022-10-23T07:05:57.625Z,2.37
2022-10-23T07:08:25.427Z,2.10
2022-10-23T07:10:53.253Z,2.10
2022-10-23T07:13:22.303Z,2.97
2022-10-23T07:15:51.782Z,2.33
2022-10-23T07:18:19.616Z,1.97
2022-10-23T07:20:49.397Z,2.40
2022-10-23T07:23:17.309Z,2.30
2022-10-23T07:25:45.154Z,2.30
2022-10-23T07:28:12.972Z,2.00
2022-10-23T07:30:41.411Z,2.40
2022-10-23T07:33:12.377Z,2.00
2022-10-23T07:35:40.746Z,1.97
2022-10-23T07:38:08.623Z,2.30
2022-10-23T07:40:36.536Z,1.97
2022-10-23T07:43:04.353Z,2.20
2022-10-23T07:45:32.231Z,2.00
2022-10-23T07:48:00.038Z,2.20
2022-10-23T07:50:29.227Z,2.40
2022-10-23T07:52:58.516Z,2.10
2022-10-23T07:55:26.431Z,2.30
2022-10-23T07:57:54.231Z,1.93
2022-10-23T08:02:55.370Z,2.60
2022-10-23T08:05:23.266Z,2.10
2022-10-23T08:07:52.519Z,2.17
2022-10-23T08:10:20.343Z,2.57
2022-10-23T08:12:48.152Z,2.17
2022-10-23T08:15:16.065Z,2.07
2022-10-23T08:17:44.187Z,2.10
2022-10-23T08:20:13.640Z,2.17
2022-10-23T08:22:41.661Z,2.50
2022-10-23T08:25:11.639Z,2.20
2022-10-23T08:27:39.796Z,2.00
2022-10-23T08:30:08.539Z,2.20
2022-10-23T08:32:36.356Z,2.47
2022-10-23T08:35:04.281Z,2.20
2022-10-23T08:37:32.139Z,2.37
2022-10-23T08:40:00.274Z,2.30
2022-10-23T08:42:29.503Z,2.33
2022-10-23T08:45:04.491Z,2.40
2022-10-23T08:47:39.402Z,2.30
2022-10-23T08:50:15.327Z,2.17
2022-10-23T08:52:50.391Z,2.33
2022-10-23T08:55:24.393Z,2.00
2022-10-23T08:57:59.650Z,2.40
2022-10-23T09:00:28.297Z,2.50
2022-10-23T09:02:56.912Z,2.60
2022-10-23T09:05:31.150Z,2.67
2022-10-23T09:08:12.540Z,2.70
2022-10-23T09:10:59.857Z,2.50
2022-10-23T09:13:54.286Z,2.60
2022-10-23T09:16:37.814Z,2.30
2022-10-23T09:19:13.126Z,2.63
2022-10-23T09:21:41.034Z,2.47
2022-10-23T09:24:15.231Z,2.10
2022-10-23T09:26:43.067Z,2.53
2022-10-23T09:29:23.813Z,1.90
2022-10-23T09:31:53.069Z,2.00
2022-10-23T09:34:22.843Z,2.53
2022-10-23T09:36:53.347Z,2.10
2022-10-23T09:39:28.114Z,2.70
2022-10-23T09:41:57.093Z,2.33
2022-10-23T09:44:27.939Z,2.10
2022-10-23T09:47:00.081Z,2.40
2022-10-23T09:49:30.004Z,2.20
2022-10-23T09:52:02.215Z,2.30
2022-10-23T09:54:32.917Z,2.17
2022-10-23T09:57:06.908Z,2.20
2022-10-23T09:59:36.101Z,3.00
2022-10-23T10:02:05.091Z,2.13
2022-10-23T10:04:35.248Z,3.23
2022-10-23T10:07:05.845Z,2.77
2022-10-23T10:09:34.442Z,3.03
2022-10-23T10:12:20.292Z,2.60
2022-10-23T10:14:59.967Z,2.40
2022-10-23T10:17:38.843Z,2.67
2022-10-23T10:20:36.782Z,2.37
2022-10-23T10:23:11.278Z,2.23
2022-10-23T10:25:51.292Z,2.60
2022-10-23T10:28:37.631Z,2.57
2022-10-23T10:31:19.942Z,2.80
2022-10-23T10:33:57.705Z,2.63
2022-10-23T10:36:40.701Z,2.37
2022-10-23T10:39:17.473Z,2.17
2022-10-23T10:42:02.544Z,2.23
2022-10-23T10:44:59.280Z,2.40
2022-10-23T10:47:34.111Z,2.80
2022-10-23T10:50:16.148Z,2.60
2022-10-23T10:52:52.235Z,2.40
2022-10-23T10:55:26.142Z,2.43
2022-10-23T10:58:00.151Z,2.50
2022-10-23T11:00:32.103Z,2.57
2022-10-23T11:03:05.442Z,2.73
2022-10-23T11:05:37.184Z,2.50
2022-10-23T11:08:13.575Z,2.90
2022-10-23T11:10:45.509Z,2.73
2022-10-23T11:13:27.060Z,2.87
2022-10-23T11:15:59.965Z,2.43
2022-10-23T11:18:31.915Z,2.53
2022-10-23T11:21:08.419Z,2.60
2022-10-23T11:23:50.284Z,2.90
2022-10-23T11:26:30.010Z,2.50
2022-10-23T11:29:16.526Z,2.57
2022-10-23T11:31:55.400Z,2.10
2022-10-23T11:34:46.359Z,2.67
2022-10-23T11:37:18.871Z,2.53
2022-10-23T11:40:02.752Z,2.53
2022-10-23T11:42:46.369Z,2.50
2022-10-23T11:45:32.459Z,2.40
2022-10-23T11:48:02.592Z,2.40
2022-10-23T11:50:35.603Z,2.07
2022-10-23T11:53:13.731Z,2.20
2022-10-23T11:56:02.056Z,2.60
2022-10-23T11:58:42.697Z,2.23
2022-10-23T12:01:35.079Z,2.40
2022-10-23T12:04:15.079Z,2.73
2022-10-23T12:06:47.283Z,3.00
2022-10-23T12:09:31.239Z,2.50
2022-10-23T12:12:28.313Z,2.53
2022-10-23T12:15:10.196Z,2.27
2022-10-23T12:17:40.303Z,2.40
2022-10-23T12:20:29.249Z,2.60
2022-10-23T12:23:35.605Z,2.33
2022-10-23T12:26:30.655Z,2.20
2022-10-23T12:29:08.744Z,2.30
2022-10-23T12:31:50.562Z,2.33
2022-10-23T12:34:29.335Z,2.37
2022-10-23T12:37:09.895Z,2.20
2022-10-23T12:39:39.182Z,2.73
2022-10-23T12:42:18.302Z,2.00
2022-10-23T12:44:46.208Z,2.20
2022-10-23T12:47:19.285Z,2.20
2022-10-23T12:49:50.284Z,2.00
2022-10-23T12:52:20.932Z,2.40
2022-10-23T12:54:50.728Z,2.10
2022-10-23T12:57:23.185Z,2.73
2022-10-23T12:59:54.141Z,2.20
2022-10-23T13:02:25.264Z,2.07
2022-10-23T13:04:55.363Z,2.30
2022-10-23T13:07:27.724Z,2.30
2022-10-23T13:09:56.439Z,2.33
2022-10-23T13:12:28.251Z,2.30
2022-10-23T13:14:59.450Z,2.30
2022-10-23T13:17:37.629Z,2.30
2022-10-23T13:20:20.257Z,2.13
2022-10-23T13:22:49.819Z,2.00
2022-10-23T13:25:25.257Z,2.37
2022-10-23T13:28:12.184Z,2.77
2022-10-23T13:30:43.049Z,1.90
2022-10-23T13:33:24.407Z,2.33
2022-10-23T13:35:59.606Z,2.83
2022-10-23T13:38:32.149Z,2.40
2022-10-23T13:41:01.332Z,2.60
2022-10-23T13:43:31.718Z,2.73
2022-10-23T13:45:59.965Z,2.93
2022-10-23T13:48:28.923Z,2.47
2022-10-23T13:51:07.185Z,2.80
2022-10-23T13:53:34.982Z,2.37
2022-10-23T13:56:02.801Z,2.70
2022-10-23T13:58:32.121Z,2.30
2022-10-23T14:01:00.349Z,2.80
2022-10-23T14:03:28.183Z,3.10
2022-10-23T14:05:56.098Z,3.00
2022-10-23T14:08:23.914Z,2.83
2022-10-23T14:10:51.729Z,2.80
2022-10-23T14:13:19.525Z,3.00
2022-10-23T14:15:55.398Z,2.83
2022-10-23T14:18:23.252Z,2.60
2022-10-23T14:20:51.336Z,3.20
2022-10-23T14:23:19.200Z,3.10
2022-10-23T14:25:47.051Z,2.80
2022-10-23T14:28:14.872Z,2.87
2022-10-23T14:30:44.230Z,2.87
2022-10-23T14:33:14.947Z,3.10
2022-10-23T14:35:43.328Z,2.80
2022-10-23T14:38:12.562Z,2.73
2022-10-23T14:40:40.416Z,5.87
2022-10-23T14:43:08.216Z,4.60
2022-10-23T14:45:36.084Z,3.80
2022-10-23T14:48:03.907Z,3.03
2022-10-23T14:50:38.011Z,3.13
2022-10-23T14:53:05.855Z,2.87
2022-10-23T14:55:33.688Z,3.00
2022-10-23T14:58:01.494Z,3.17
2022-10-23T15:00:29.343Z,3.20
2022-10-23T15:02:57.132Z,3.30
2022-10-23T15:05:24.924Z,3.07
2022-10-23T15:07:55.800Z,3.13
2022-10-23T15:10:23.653Z,2.90
2022-10-23T15:12:51.467Z,3.30
2022-10-23T15:15:19.495Z,3.50
2022-10-23T15:17:47.311Z,2.93
2022-10-23T15:20:15.118Z,3.33
2022-10-23T15:22:43.294Z,3.73
2022-10-23T15:25:17.010Z,2.97
2022-10-23T15:27:46.059Z,3.70
2022-10-23T15:30:14.291Z,3.37
2022-10-23T15:32:42.264Z,3.27
2022-10-23T15:35:10.087Z,3.87
2022-10-23T15:37:37.976Z,3.83
2022-10-23T15:40:06.440Z,3.40
2022-10-23T15:42:35.599Z,2.93
2022-10-23T15:45:03.427Z,3.30
2022-10-23T15:47:31.226Z,3.20
2022-10-23T15:49:59.084Z,2.90
2022-10-23T15:52:26.906Z,3.43
2022-10-23T15:54:54.722Z,3.73
2022-10-23T15:57:22.548Z,4.10
2022-10-23T15:59:52.030Z,3.47
2022-10-23T16:02:20.084Z,3.53
2022-10-23T16:04:48.015Z,3.70
2022-10-23T16:07:15.854Z,4.63
2022-10-23T16:09:43.836Z,3.90
2022-10-23T16:12:11.663Z,3.43
2022-10-23T16:14:39.982Z,3.83
2022-10-23T16:17:09.225Z,3.43
2022-10-23T16:19:37.354Z,3.33
2022-10-23T16:22:05.319Z,3.50
2022-10-23T16:24:33.260Z,4.10
2022-10-23T16:27:01.071Z,3.50
2022-10-23T16:29:29.461Z,4.03
2022-10-23T16:31:59.790Z,3.70
2022-10-23T16:34:29.016Z,3.97
2022-10-23T16:36:56.819Z,4.20
2022-10-23T16:39:24.791Z,5.00
2022-10-23T16:41:52.612Z,10.47
2022-10-23T16:44:20.439Z,17.60
2022-10-23T16:46:48.235Z,10.70
2022-10-23T16:49:16.150Z,7.73
2022-10-23T16:51:45.575Z,6.60
2022-10-23T16:54:14.552Z,11.90
2022-10-23T16:56:42.368Z,16.07
2022-10-23T16:59:11.317Z,7.50
2022-10-23T17:01:39.455Z,9.87
2022-10-23T17:04:08.217Z,9.17
2022-10-23T17:06:36.341Z,9.50
2022-10-23T17:09:06.285Z,6.80
2022-10-23T17:11:37.205Z,7.30
2022-10-23T17:14:07.061Z,7.00
2022-10-23T17:16:37.764Z,6.80
2022-10-23T17:19:15.989Z,5.60
2022-10-23T17:21:49.195Z,5.43
2022-10-23T17:24:18.981Z,4.33
2022-10-23T17:26:47.198Z,5.83
2022-10-23T17:29:15.572Z,4.33
2022-10-23T17:31:45.806Z,4.50
2022-10-23T17:34:17.328Z,4.60
2022-10-23T17:36:47.319Z,3.33
2022-10-23T17:39:18.739Z,3.40
2022-10-23T17:41:48.239Z,3.00
2022-10-23T17:44:16.424Z,3.77
2022-10-23T17:46:44.549Z,3.10
2022-10-23T17:49:13.165Z,3.03
2022-10-23T17:51:41.125Z,4.17
2022-10-23T17:54:12.810Z,2.90
2022-10-23T17:56:41.283Z,2.80
2022-10-23T17:59:13.561Z,2.77
2022-10-23T18:01:43.582Z,3.40
2022-10-23T18:04:11.695Z,2.30
2022-10-23T18:06:43.808Z,2.43
2022-10-23T18:09:12.233Z,2.57
2022-10-23T18:11:45.361Z,2.43
2022-10-23T18:14:17.745Z,2.00
2022-10-23T18:16:46.473Z,2.30
2022-10-23T18:19:14.621Z,2.00
2022-10-23T18:21:42.458Z,2.37
2022-10-23T18:24:10.784Z,2.23
2022-10-23T18:26:41.137Z,3.47
2022-10-23T18:29:09.869Z,2.70
2022-10-23T18:31:39.095Z,2.70
2022-10-23T18:34:10.091Z,2.13
2022-10-23T18:36:40.607Z,1.97
2022-10-23T18:39:12.170Z,2.00
2022-10-23T18:41:41.648Z,2.50
2022-10-23T18:44:10.469Z,1.87
2022-10-23T18:46:39.614Z,2.57
2022-10-23T18:49:07.439Z,1.70
2022-10-23T18:51:36.346Z,1.73
2022-10-23T18:54:06.472Z,1.30
2022-10-23T18:56:35.940Z,1.53
2022-10-23T18:59:06.618Z,1.20
2022-10-23T19:01:35.418Z,1.40
2022-10-23T19:04:05.728Z,1.83
2022-10-23T19:06:34.018Z,1.33
2022-10-23T19:09:01.844Z,1.83
2022-10-23T19:11:30.139Z,1.97
2022-10-23T19:13:57.963Z,1.53
2022-10-23T19:16:30.315Z,1.50
2022-10-23T19:19:01.362Z,1.77
2022-10-23T19:21:33.645Z,1.50
2022-10-23T19:24:04.069Z,1.37
2022-10-23T19:26:32.129Z,1.37
2022-10-23T19:29:00.222Z,1.53
2022-10-23T19:31:28.531Z,1.13
2022-10-23T19:33:56.308Z,1.77
2022-10-23T19:36:24.094Z,1.20
2022-10-23T19:38:53.308Z,1.50
2022-10-23T19:41:21.335Z,1.50
2022-10-23T19:43:49.117Z,1.50
2022-10-23T19:46:17.009Z,1.13
2022-10-23T19:48:46.731Z,1.30
2022-10-23T19:51:14.665Z,1.40
2022-10-23T19:53:43.045Z,1.00
2022-10-23T19:56:13.551Z,1.30
2022-10-23T19:58:41.979Z,1.50
2022-10-23T20:01:12.144Z,1.20
2022-10-23T20:03:41.108Z,1.60
2022-10-23T20:06:10.600Z,1.10
2022-10-23T20:08:38.567Z,1.10
2022-10-23T20:11:06.792Z,1.00
2022-10-23T20:13:36.630Z,1.00
2022-10-23T20:16:04.866Z,1.50
2022-10-23T20:18:32.743Z,1.40
2022-10-23T20:21:03.181Z,1.70
2022-10-23T20:23:31.028Z,1.47
2022-10-23T20:26:05.486Z,1.50
2022-10-23T20:28:34.816Z,1.40
2022-10-23T20:31:06.439Z,1.30
2022-10-23T20:33:34.455Z,1.50
2022-10-23T20:36:02.448Z,1.13
2022-10-23T20:38:30.271Z,1.50
2022-10-23T20:41:00.252Z,1.33
2022-10-23T20:43:28.181Z,1.60
2022-10-23T20:45:59.344Z,1.83
2022-10-23T20:48:27.214Z,1.43
2022-10-23T20:50:55.007Z,2.03
2022-10-23T20:53:22.838Z,2.10
2022-10-23T20:55:51.551Z,1.40
2022-10-23T20:58:19.341Z,1.97
2022-10-23T21:00:47.188Z,1.87
2022-10-23T21:03:16.378Z,1.70
2022-10-23T21:05:44.839Z,1.80
2022-10-23T21:08:12.673Z,2.53
2022-10-23T21:10:46.222Z,1.87
2022-10-23T21:13:14.067Z,1.50
2022-10-23T21:15:41.872Z,1.97
2022-10-23T21:18:27.513Z,1.40
2022-10-23T21:21:03.498Z,2.00
2022-10-23T21:23:31.315Z,1.93
2022-10-23T21:26:01.251Z,1.77
2022-10-23T21:28:31.960Z,1.80
2022-10-23T21:31:04.386Z,1.90
2022-10-23T21:33:32.693Z,2.10
2022-10-23T21:36:11.802Z,1.83
2022-10-23T21:38:43.055Z,2.00
2022-10-23T21:41:13.225Z,2.17
2022-10-23T21:43:41.071Z,2.67
2022-10-23T21:46:13.447Z,1.73
2022-10-23T21:48:41.690Z,1.93
2022-10-23T21:51:14.674Z,2.10
2022-10-23T21:53:43.817Z,1.50
2022-10-23T21:56:25.081Z,2.57
2022-10-23T21:58:52.956Z,1.93
2022-10-23T22:01:21.289Z,1.90
2022-10-23T22:03:49.636Z,2.33
2022-10-23T22:06:19.540Z,1.80
2022-10-23T22:08:48.792Z,2.83
2022-10-23T22:11:17.455Z,3.13
2022-10-23T22:13:45.810Z,2.40
2022-10-23T22:16:14.809Z,2.50
2022-10-23T22:18:42.956Z,3.00
2022-10-23T22:21:12.534Z,2.20
2022-10-23T22:23:40.781Z,2.37
2022-10-23T22:26:18.663Z,2.83
2022-10-23T22:28:46.512Z,2.40
2022-10-23T22:31:16.195Z,2.33
2022-10-23T22:33:44.250Z,2.40
2022-10-23T22:36:12.318Z,2.40
2022-10-23T22:38:40.908Z,2.60
2022-10-23T22:41:10.283Z,2.77
2022-10-23T22:43:38.303Z,2.03
2022-10-23T22:46:08.256Z,2.07
2022-10-23T22:48:37.034Z,2.50
2022-10-23T22:51:08.332Z,2.67
2022-10-23T22:53:37.184Z,2.57
2022-10-23T22:56:07.542Z,2.60
2022-10-23T22:58:37.428Z,2.23
2022-10-23T23:01:08.702Z,2.73
2022-10-23T23:03:37.804Z,3.20
2022-10-23T23:06:07.553Z,2.47
2022-10-23T23:08:35.697Z,2.30
2022-10-23T23:11:04.282Z,2.60
2022-10-23T23:13:32.465Z,3.13
2022-10-23T23:16:01.974Z,3.17
2022-10-23T23:18:30.479Z,2.53
2022-10-23T23:21:01.791Z,2.97
2022-10-23T23:23:29.904Z,3.50
2022-10-23T23:25:57.848Z,3.20
2022-10-23T23:28:25.856Z,2.87
2022-10-23T23:31:05.363Z,3.37
2022-10-23T23:33:33.326Z,4.23
2022-10-23T23:36:01.344Z,3.50
2022-10-23T23:38:29.165Z,3.50
2022-10-23T23:40:56.970Z,3.20
2022-10-23T23:43:24.798Z,3.10
2022-10-23T23:45:52.586Z,2.67
2022-10-23T23:48:21.821Z,2.93
2022-10-23T23:50:49.718Z,2.90
2022-10-23T23:53:17.613Z,3.67
2022-10-23T23:55:45.676Z,3.47
2022-10-23T23:58:13.820Z,3.03
